sensor_id;sensor_type;location;lat;lon;timestamp;pressure;altitude;pressure_sealevel;temperature;humidity
48200;BME280;33990;44.602;10.976;2023-05-20T00:01:57;101155.44;;;21.16;60.41
48200;BME280;33990;44.602;10.976;2023-05-20T00:04:24;101160.84;;;21.16;60.51
48200;BME280;33990;44.602;10.976;2023-05-20T00:06:52;101159.13;;;21.15;60.46
48200;BME280;33990;44.602;10.976;2023-05-20T00:09:20;101152.91;;;21.15;60.47
48200;BME280;33990;44.602;10.976;2023-05-20T00:11:48;101152.91;;;21.15;60.52
48200;BME280;33990;44.602;10.976;2023-05-20T00:14:15;101140.28;;;21.15;60.44
48200;BME280;33990;44.602;10.976;2023-05-20T00:16:42;101148.47;;;21.14;60.45
48200;BME280;33990;44.602;10.976;2023-05-20T00:19:10;101148.38;;;21.15;60.42
48200;BME280;33990;44.602;10.976;2023-05-20T00:21:37;101143.94;;;21.14;60.37
48200;BME280;33990;44.602;10.976;2023-05-20T00:24:05;101149.31;;;21.14;60.37
48200;BME280;33990;44.602;10.976;2023-05-20T00:26:32;101148.47;;;21.14;60.54
48200;BME280;33990;44.602;10.976;2023-05-20T00:28:59;101153.88;;;21.14;60.40
48200;BME280;33990;44.602;10.976;2023-05-20T00:31:27;101147.63;;;21.13;60.44
48200;BME280;33990;44.602;10.976;2023-05-20T00:33:54;101145.94;;;21.12;60.33
48200;BME280;33990;44.602;10.976;2023-05-20T00:36:21;101135.16;;;21.12;60.44
48200;BME280;33990;44.602;10.976;2023-05-20T00:38:49;101141.25;;;21.14;60.34
48200;BME280;33990;44.602;10.976;2023-05-20T00:41:16;101140.41;;;21.14;60.49
48200;BME280;33990;44.602;10.976;2023-05-20T00:43:44;101139.56;;;21.13;60.45
48200;BME280;33990;44.602;10.976;2023-05-20T00:46:11;101131.47;;;21.13;60.32
48200;BME280;33990;44.602;10.976;2023-05-20T00:48:41;101124.41;;;21.12;60.23
48200;BME280;33990;44.602;10.976;2023-05-20T00:51:10;101123.56;;;21.12;60.34
48200;BME280;33990;44.602;10.976;2023-05-20T00:53:39;101112.78;;;21.12;60.25
48200;BME280;33990;44.602;10.976;2023-05-20T00:56:08;101113.63;;;21.12;60.23
48200;BME280;33990;44.602;10.976;2023-05-20T00:58:36;101111.09;;;21.11;60.27
48200;BME280;33990;44.602;10.976;2023-05-20T01:01:04;101108.25;;;21.12;60.30
48200;BME280;33990;44.602;10.976;2023-05-20T01:03:32;101108.25;;;21.12;60.26
48200;BME280;33990;44.602;10.976;2023-05-20T01:06:01;101088.56;;;21.12;60.27
48200;BME280;33990;44.602;10.976;2023-05-20T01:08:28;101105.69;;;21.11;60.28
48200;BME280;33990;44.602;10.976;2023-05-20T01:11:03;101096.75;;;21.10;60.39
48200;BME280;33990;44.602;10.976;2023-05-20T01:13:39;101095.78;;;21.11;60.37
48200;BME280;33990;44.602;10.976;2023-05-20T01:16:09;101090.41;;;21.11;60.23
48200;BME280;33990;44.602;10.976;2023-05-20T01:18:38;101089.56;;;21.11;60.29
48200;BME280;33990;44.602;10.976;2023-05-20T01:21:06;101090.41;;;21.11;60.15
48200;BME280;33990;44.602;10.976;2023-05-20T01:23:39;101085.97;;;21.10;60.21
48200;BME280;33990;44.602;10.976;2023-05-20T01:26:08;101095.78;;;21.11;60.23
48200;BME280;33990;44.602;10.976;2023-05-20T01:28:40;101091.38;;;21.10;60.32
48200;BME280;33990;44.602;10.976;2023-05-20T01:31:14;101092.34;;;21.09;60.19
48200;BME280;33990;44.602;10.976;2023-05-20T01:33:44;101082.31;;;21.11;60.26
48200;BME280;33990;44.602;10.976;2023-05-20T01:36:13;101084.28;;;21.09;60.26
48200;BME280;33990;44.602;10.976;2023-05-20T01:38:41;101080.59;;;21.10;60.17
48200;BME280;33990;44.602;10.976;2023-05-20T01:41:09;101077.91;;;21.10;60.26
48200;BME280;33990;44.602;10.976;2023-05-20T01:43:38;101082.44;;;21.10;60.25
48200;BME280;33990;44.602;10.976;2023-05-20T01:46:07;101078.91;;;21.09;60.17
48200;BME280;33990;44.602;10.976;2023-05-20T01:48:35;101077.91;;;21.10;60.26
48200;BME280;33990;44.602;10.976;2023-05-20T01:51:04;101079.75;;;21.10;60.17
48200;BME280;33990;44.602;10.976;2023-05-20T01:53:31;101076.22;;;21.09;60.19
48200;BME280;33990;44.602;10.976;2023-05-20T01:55:59;101073.50;;;21.09;60.15
48200;BME280;33990;44.602;10.976;2023-05-20T01:58:27;101066.28;;;21.10;60.33
48200;BME280;33990;44.602;10.976;2023-05-20T02:00:54;101051.97;;;21.09;60.18
48200;BME280;33990;44.602;10.976;2023-05-20T02:03:22;101047.59;;;21.08;60.19
48200;BME280;33990;44.602;10.976;2023-05-20T02:05:49;101043.91;;;21.09;60.23
48200;BME280;33990;44.602;10.976;2023-05-20T02:08:17;101050.13;;;21.10;60.17
48200;BME280;33990;44.602;10.976;2023-05-20T02:10:47;101047.59;;;21.08;60.19
48200;BME280;33990;44.602;10.976;2023-05-20T02:13:14;101042.22;;;21.08;60.26
48200;BME280;33990;44.602;10.976;2023-05-20T02:15:42;101044.75;;;21.10;60.19
48200;BME280;33990;44.602;10.976;2023-05-20T02:18:09;101035.81;;;21.09;60.21
48200;BME280;33990;44.602;10.976;2023-05-20T02:20:38;101039.53;;;21.08;60.31
48200;BME280;33990;44.602;10.976;2023-05-20T02:23:07;101036.81;;;21.08;60.33
48200;BME280;33990;44.602;10.976;2023-05-20T02:25:36;101030.59;;;21.08;60.29
48200;BME280;33990;44.602;10.976;2023-05-20T02:28:03;101031.44;;;21.08;60.36
48200;BME280;33990;44.602;10.976;2023-05-20T02:30:32;101031.44;;;21.08;60.40
48200;BME280;33990;44.602;10.976;2023-05-20T02:32:59;101016.97;;;21.09;60.31
48200;BME280;33990;44.602;10.976;2023-05-20T02:35:27;101017.97;;;21.08;60.31
48200;BME280;33990;44.602;10.976;2023-05-20T02:37:55;101024.22;;;21.09;60.44
48200;BME280;33990;44.602;10.976;2023-05-20T02:40:22;101012.59;;;21.08;60.48
48200;BME280;33990;44.602;10.976;2023-05-20T02:42:50;101013.59;;;21.07;60.46
48200;BME280;33990;44.602;10.976;2023-05-20T02:45:17;101012.59;;;21.08;60.36
48200;BME280;33990;44.602;10.976;2023-05-20T02:47:45;101010.91;;;21.07;60.43
48200;BME280;33990;44.602;10.976;2023-05-20T02:50:12;101008.22;;;21.07;60.50
48200;BME280;33990;44.602;10.976;2023-05-20T02:52:40;101003.69;;;21.08;60.47
48200;BME280;33990;44.602;10.976;2023-05-20T02:55:09;101008.91;;;21.09;60.61
48200;BME280;33990;44.602;10.976;2023-05-20T02:57:37;101007.22;;;21.08;60.69
48200;BME280;33990;44.602;10.976;2023-05-20T03:00:07;101009.06;;;21.08;60.66
48200;BME280;33990;44.602;10.976;2023-05-20T03:02:38;101002.69;;;21.09;60.71
48200;BME280;33990;44.602;10.976;2023-05-20T03:05:06;101005.38;;;21.09;60.46
48200;BME280;33990;44.602;10.976;2023-05-20T03:07:35;100999.13;;;21.08;60.72
48200;BME280;33990;44.602;10.976;2023-05-20T03:10:06;100994.59;;;21.09;60.94
48200;BME280;33990;44.602;10.976;2023-05-20T03:12:34;100995.44;;;21.09;60.80
48200;BME280;33990;44.602;10.976;2023-05-20T03:15:01;100993.75;;;21.08;60.90
48200;BME280;33990;44.602;10.976;2023-05-20T03:17:29;100992.75;;;21.09;60.99
48200;BME280;33990;44.602;10.976;2023-05-20T03:19:57;100991.06;;;21.08;61.05
48200;BME280;33990;44.602;10.976;2023-05-20T03:22:24;100993.75;;;21.08;61.07
48200;BME280;33990;44.602;10.976;2023-05-20T03:24:52;100987.53;;;21.08;61.10
48200;BME280;33990;44.602;10.976;2023-05-20T03:27:19;100997.28;;;21.09;60.88
48200;BME280;33990;44.602;10.976;2023-05-20T03:29:47;100985.69;;;21.08;60.92
48200;BME280;33990;44.602;10.976;2023-05-20T03:32:15;100987.53;;;21.08;60.85
48200;BME280;33990;44.602;10.976;2023-05-20T03:34:43;100982.13;;;21.08;60.98
48200;BME280;33990;44.602;10.976;2023-05-20T03:37:11;100982.13;;;21.08;61.09
48200;BME280;33990;44.602;10.976;2023-05-20T03:39:38;100984.69;;;21.09;61.12
48200;BME280;33990;44.602;10.976;2023-05-20T03:42:06;100983.00;;;21.08;61.14
48200;BME280;33990;44.602;10.976;2023-05-20T03:44:34;100983.84;;;21.09;61.20
48200;BME280;33990;44.602;10.976;2023-05-20T03:47:02;100983.00;;;21.08;61.05
48200;BME280;33990;44.602;10.976;2023-05-20T03:49:30;100975.91;;;21.07;61.16
48200;BME280;33990;44.602;10.976;2023-05-20T03:51:57;100977.75;;;21.07;61.06
48200;BME280;33990;44.602;10.976;2023-05-20T03:54:25;100974.06;;;21.08;60.99
48200;BME280;33990;44.602;10.976;2023-05-20T03:56:54;100981.28;;;21.07;61.10
48200;BME280;33990;44.602;10.976;2023-05-20T03:59:22;100978.59;;;21.07;60.99
48200;BME280;33990;44.602;10.976;2023-05-20T04:01:50;100977.75;;;21.07;60.98
48200;BME280;33990;44.602;10.976;2023-05-20T04:04:17;100984.84;;;21.08;61.07
48200;BME280;33990;44.602;10.976;2023-05-20T04:06:45;100975.91;;;21.07;60.93
48200;BME280;33990;44.602;10.976;2023-05-20T04:09:12;100991.22;;;21.07;60.98
48200;BME280;33990;44.602;10.976;2023-05-20T04:11:40;100987.66;;;21.06;60.95
48200;BME280;33990;44.602;10.976;2023-05-20T04:14:08;100982.25;;;21.06;60.84
48200;BME280;33990;44.602;10.976;2023-05-20T04:16:37;100985.94;;;21.05;60.84
48200;BME280;33990;44.602;10.976;2023-05-20T04:19:05;100984.09;;;21.06;60.98
48200;BME280;33990;44.602;10.976;2023-05-20T04:21:33;100984.94;;;21.06;60.94
48200;BME280;33990;44.602;10.976;2023-05-20T04:24:00;100981.41;;;21.06;60.86
48200;BME280;33990;44.602;10.976;2023-05-20T04:26:28;100977.03;;;21.05;60.88
48200;BME280;33990;44.602;10.976;2023-05-20T04:28:55;100975.19;;;21.05;61.03
48200;BME280;33990;44.602;10.976;2023-05-20T04:31:26;100977.03;;;21.05;61.01
48200;BME280;33990;44.602;10.976;2023-05-20T04:33:53;100971.66;;;21.05;60.92
48200;BME280;33990;44.602;10.976;2023-05-20T04:36:22;100975.19;;;21.05;61.13
48200;BME280;33990;44.602;10.976;2023-05-20T04:38:54;100972.66;;;21.04;60.99
48200;BME280;33990;44.602;10.976;2023-05-20T04:41:23;100972.50;;;21.05;60.85
48200;BME280;33990;44.602;10.976;2023-05-20T04:43:50;100963.56;;;21.05;60.77
48200;BME280;33990;44.602;10.976;2023-05-20T04:46:17;100959.03;;;21.05;60.89
48200;BME280;33990;44.602;10.976;2023-05-20T04:48:47;100957.34;;;21.04;60.98
48200;BME280;33990;44.602;10.976;2023-05-20T04:51:14;100959.19;;;21.04;60.94
48200;BME280;33990;44.602;10.976;2023-05-20T04:53:42;100951.97;;;21.04;60.92
48200;BME280;33990;44.602;10.976;2023-05-20T04:56:12;100952.09;;;21.03;60.97
48200;BME280;33990;44.602;10.976;2023-05-20T04:58:39;100959.19;;;21.04;60.94
48200;BME280;33990;44.602;10.976;2023-05-20T05:01:07;100962.72;;;21.04;60.95
48200;BME280;33990;44.602;10.976;2023-05-20T05:03:35;100959.19;;;21.04;61.07
48200;BME280;33990;44.602;10.976;2023-05-20T05:06:03;100961.88;;;21.04;61.04
48200;BME280;33990;44.602;10.976;2023-05-20T05:08:31;100957.34;;;21.04;61.14
48200;BME280;33990;44.602;10.976;2023-05-20T05:10:59;100951.13;;;21.04;61.05
48200;BME280;33990;44.602;10.976;2023-05-20T05:13:26;100943.88;;;21.04;61.00
48200;BME280;33990;44.602;10.976;2023-05-20T05:15:58;100947.56;;;21.03;61.18
48200;BME280;33990;44.602;10.976;2023-05-20T05:18:27;100952.81;;;21.05;61.13
48200;BME280;33990;44.602;10.976;2023-05-20T05:21:00;100957.34;;;21.04;61.04
48200;BME280;33990;44.602;10.976;2023-05-20T05:23:28;100954.66;;;21.04;61.10
48200;BME280;33990;44.602;10.976;2023-05-20T05:25:55;100951.13;;;21.04;61.06
48200;BME280;33990;44.602;10.976;2023-05-20T05:28:23;100950.97;;;21.05;61.06
48200;BME280;33990;44.602;10.976;2023-05-20T05:30:53;100954.66;;;21.04;61.11
48200;BME280;33990;44.602;10.976;2023-05-20T05:33:21;100945.72;;;21.04;61.11
48200;BME280;33990;44.602;10.976;2023-05-20T05:35:49;100947.56;;;21.03;61.16
48200;BME280;33990;44.602;10.976;2023-05-20T05:38:17;100943.03;;;21.04;61.11
48200;BME280;33990;44.602;10.976;2023-05-20T05:40:44;100939.50;;;21.03;61.08
48200;BME280;33990;44.602;10.976;2023-05-20T05:43:12;100939.50;;;21.03;61.08
48200;BME280;33990;44.602;10.976;2023-05-20T05:45:39;100948.41;;;21.04;61.19
48200;BME280;33990;44.602;10.976;2023-05-20T05:48:09;100946.56;;;21.04;61.18
48200;BME280;33990;44.602;10.976;2023-05-20T05:50:36;100948.41;;;21.04;61.10
48200;BME280;33990;44.602;10.976;2023-05-20T05:53:04;100943.88;;;21.04;61.17
48200;BME280;33990;44.602;10.976;2023-05-20T05:55:32;100951.97;;;21.04;61.22
48200;BME280;33990;44.602;10.976;2023-05-20T05:58:00;100950.38;;;21.02;61.14
48200;BME280;33990;44.602;10.976;2023-05-20T06:00:29;100948.41;;;21.04;61.32
48200;BME280;33990;44.602;10.976;2023-05-20T06:02:56;100944.03;;;21.03;61.11
48200;BME280;33990;44.602;10.976;2023-05-20T06:05:32;100953.81;;;21.04;61.20
48200;BME280;33990;44.602;10.976;2023-05-20T06:08:00;100952.94;;;21.03;61.23
48200;BME280;33990;44.602;10.976;2023-05-20T06:10:30;100960.88;;;21.05;61.19
48200;BME280;33990;44.602;10.976;2023-05-20T06:12:57;100961.03;;;21.03;61.19
48200;BME280;33990;44.602;10.976;2023-05-20T06:15:25;100952.94;;;21.03;61.32
48200;BME280;33990;44.602;10.976;2023-05-20T06:17:53;100953.81;;;21.04;61.44
48200;BME280;33990;44.602;10.976;2023-05-20T06:20:21;100955.66;;;21.03;61.25
48200;BME280;33990;44.602;10.976;2023-05-20T06:22:48;100951.13;;;21.04;61.36
48200;BME280;33990;44.602;10.976;2023-05-20T06:25:16;100947.56;;;21.03;61.34
48200;BME280;33990;44.602;10.976;2023-05-20T06:27:44;100950.25;;;21.03;61.28
48200;BME280;33990;44.602;10.976;2023-05-20T06:30:15;100948.41;;;21.04;61.32
48200;BME280;33990;44.602;10.976;2023-05-20T06:32:44;100944.88;;;21.03;61.28
48200;BME280;33990;44.602;10.976;2023-05-20T06:35:12;100943.03;;;21.04;61.40
48200;BME280;33990;44.602;10.976;2023-05-20T06:37:40;100945.72;;;21.04;61.37
48200;BME280;33990;44.602;10.976;2023-05-20T06:40:08;100936.81;;;21.03;61.44
48200;BME280;33990;44.602;10.976;2023-05-20T06:42:36;100941.19;;;21.04;61.48
48200;BME280;33990;44.602;10.976;2023-05-20T06:45:05;100946.72;;;21.03;61.57
48200;BME280;33990;44.602;10.976;2023-05-20T06:48:02;100952.09;;;21.03;61.51
48200;BME280;33990;44.602;10.976;2023-05-20T06:50:29;100958.34;;;21.03;61.51
48200;BME280;33990;44.602;10.976;2023-05-20T06:52:57;100961.88;;;21.04;61.52
48200;BME280;33990;44.602;10.976;2023-05-20T06:55:25;100951.13;;;21.04;61.69
48200;BME280;33990;44.602;10.976;2023-05-20T06:57:53;100952.81;;;21.05;61.52
48200;BME280;33990;44.602;10.976;2023-05-20T07:00:21;100946.00;;;21.01;61.66
48200;BME280;33990;44.602;10.976;2023-05-20T07:02:50;100950.81;;;20.87;61.84
48200;BME280;33990;44.602;10.976;2023-05-20T07:05:19;100957.16;;;20.77;62.05
48200;BME280;33990;44.602;10.976;2023-05-20T07:07:46;100947.63;;;20.63;62.35
48200;BME280;33990;44.602;10.976;2023-05-20T07:10:14;100956.25;;;20.57;62.47
48200;BME280;33990;44.602;10.976;2023-05-20T07:12:42;100947.75;;;20.52;62.54
48200;BME280;33990;44.602;10.976;2023-05-20T07:15:09;100953.63;;;20.45;62.95
48200;BME280;33990;44.602;10.976;2023-05-20T07:17:38;100953.31;;;20.39;62.95
48200;BME280;33990;44.602;10.976;2023-05-20T07:20:06;100950.72;;;20.28;63.10
48200;BME280;33990;44.602;10.976;2023-05-20T07:22:35;100957.50;;;20.22;63.64
48200;BME280;33990;44.602;10.976;2023-05-20T07:25:20;100951.06;;;20.13;63.63
48200;BME280;33990;44.602;10.976;2023-05-20T07:27:48;100956.25;;;20.05;63.91
48200;BME280;33990;44.602;10.976;2023-05-20T07:30:15;100958.66;;;19.98;64.18
48200;BME280;33990;44.602;10.976;2023-05-20T07:32:51;100954.28;;;19.97;64.62
48200;BME280;33990;44.602;10.976;2023-05-20T07:35:18;100953.69;;;19.94;64.48
48200;BME280;33990;44.602;10.976;2023-05-20T07:37:45;100951.09;;;19.92;64.51
48200;BME280;33990;44.602;10.976;2023-05-20T07:40:13;100951.69;;;19.96;64.22
48200;BME280;33990;44.602;10.976;2023-05-20T07:42:41;100952.47;;;20.08;63.93
48200;BME280;33990;44.602;10.976;2023-05-20T07:45:09;100950.41;;;20.21;63.95
48200;BME280;33990;44.602;10.976;2023-05-20T07:47:37;100946.09;;;20.30;63.65
48200;BME280;33990;44.602;10.976;2023-05-20T07:50:05;100947.94;;;20.39;63.43
48200;BME280;33990;44.602;10.976;2023-05-20T07:52:35;100942.00;;;20.45;63.31
48200;BME280;33990;44.602;10.976;2023-05-20T07:55:23;100946.88;;;20.51;63.29
48200;BME280;33990;44.602;10.976;2023-05-20T07:57:51;100940.25;;;20.55;63.17
48200;BME280;33990;44.602;10.976;2023-05-20T08:00:21;100941.78;;;20.58;63.13
48200;BME280;33990;44.602;10.976;2023-05-20T08:02:48;100946.91;;;20.61;62.89
48200;BME280;33990;44.602;10.976;2023-05-20T08:05:23;100944.94;;;20.63;62.84
48200;BME280;33990;44.602;10.976;2023-05-20T08:07:51;100940.16;;;20.66;62.77
48200;BME280;33990;44.602;10.976;2023-05-20T08:10:20;100932.63;;;20.70;62.67
48200;BME280;33990;44.602;10.976;2023-05-20T08:12:48;100934.19;;;20.72;62.70
48200;BME280;33990;44.602;10.976;2023-05-20T08:15:19;100932.22;;;20.74;62.71
48200;BME280;33990;44.602;10.976;2023-05-20T08:17:47;100924.84;;;20.77;62.59
48200;BME280;33990;44.602;10.976;2023-05-20T08:20:14;100924.72;;;20.78;62.51
48200;BME280;33990;44.602;10.976;2023-05-20T08:22:41;100928.13;;;20.80;62.44
48200;BME280;33990;44.602;10.976;2023-05-20T08:25:09;100929.69;;;20.83;62.45
48200;BME280;33990;44.602;10.976;2023-05-20T08:27:37;100931.41;;;20.84;62.31
48200;BME280;33990;44.602;10.976;2023-05-20T08:30:06;100932.09;;;20.86;62.44
48200;BME280;33990;44.602;10.976;2023-05-20T08:32:36;100930.25;;;20.86;62.30
48200;BME280;33990;44.602;10.976;2023-05-20T08:35:03;100923.75;;;20.89;62.47
48200;BME280;33990;44.602;10.976;2023-05-20T08:37:31;100922.75;;;20.90;62.45
48200;BME280;33990;44.602;10.976;2023-05-20T08:39:59;100928.00;;;20.91;62.20
48200;BME280;33990;44.602;10.976;2023-05-20T08:42:26;100913.56;;;20.92;62.20
48200;BME280;33990;44.602;10.976;2023-05-20T08:44:56;100921.47;;;20.94;62.26
48200;BME280;33990;44.602;10.976;2023-05-20T08:47:25;100911.44;;;20.96;62.38
48200;BME280;33990;44.602;10.976;2023-05-20T08:49:53;100916.81;;;20.96;62.46
48200;BME280;33990;44.602;10.976;2023-05-20T08:52:20;100914.97;;;20.96;62.46
48200;BME280;33990;44.602;10.976;2023-05-20T08:54:49;100921.19;;;20.97;62.41
48200;BME280;33990;44.602;10.976;2023-05-20T08:57:17;100920.19;;;20.98;62.30
48200;BME280;33990;44.602;10.976;2023-05-20T08:59:46;100920.19;;;20.98;62.30
48200;BME280;33990;44.602;10.976;2023-05-20T09:02:13;100919.09;;;21.01;62.30
48200;BME280;33990;44.602;10.976;2023-05-20T09:04:41;100918.94;;;21.02;62.36
48200;BME280;33990;44.602;10.976;2023-05-20T09:07:09;100928.16;;;20.99;62.34
48200;BME280;33990;44.602;10.976;2023-05-20T09:09:36;100923.78;;;20.98;62.22
48200;BME280;33990;44.602;10.976;2023-05-20T09:12:04;100922.91;;;20.98;62.32
48200;BME280;33990;44.602;10.976;2023-05-20T09:14:31;100920.19;;;20.98;62.35
48200;BME280;33990;44.602;10.976;2023-05-20T09:16:59;100923.91;;;20.97;62.31
48200;BME280;33990;44.602;10.976;2023-05-20T09:19:26;100925.59;;;20.98;62.30
48200;BME280;33990;44.602;10.976;2023-05-20T09:21:54;100924.75;;;20.97;62.27
48200;BME280;33990;44.602;10.976;2023-05-20T09:24:23;100925.75;;;20.96;62.18
48200;BME280;33990;44.602;10.976;2023-05-20T09:26:51;100926.59;;;20.97;62.26
48200;BME280;33990;44.602;10.976;2023-05-20T09:29:18;100911.44;;;20.96;62.09
48200;BME280;33990;44.602;10.976;2023-05-20T09:31:48;100915.13;;;20.95;62.16
48200;BME280;33990;44.602;10.976;2023-05-20T09:34:16;100910.59;;;20.95;62.00
48200;BME280;33990;44.602;10.976;2023-05-20T09:36:44;100912.44;;;20.95;62.15
48200;BME280;33990;44.602;10.976;2023-05-20T09:39:13;100918.66;;;20.95;62.08
48200;BME280;33990;44.602;10.976;2023-05-20T09:41:48;100911.59;;;20.94;62.09
48200;BME280;33990;44.602;10.976;2023-05-20T09:44:18;100916.09;;;20.94;62.05
48200;BME280;33990;44.602;10.976;2023-05-20T09:46:47;100925.88;;;20.95;62.03
48200;BME280;33990;44.602;10.976;2023-05-20T09:49:16;100911.59;;;20.94;61.99
48200;BME280;33990;44.602;10.976;2023-05-20T09:51:45;100913.41;;;20.94;61.95
48200;BME280;33990;44.602;10.976;2023-05-20T09:54:14;100912.56;;;20.93;61.94
48200;BME280;33990;44.602;10.976;2023-05-20T09:56:45;100918.78;;;20.94;61.99
48200;BME280;33990;44.602;10.976;2023-05-20T09:59:14;100910.72;;;20.94;61.72
48200;BME280;33990;44.602;10.976;2023-05-20T10:01:44;100912.56;;;20.93;61.81
48200;BME280;33990;44.602;10.976;2023-05-20T10:04:14;100910.72;;;20.94;61.93
48200;BME280;33990;44.602;10.976;2023-05-20T10:06:57;100900.94;;;20.93;61.91
48200;BME280;33990;44.602;10.976;2023-05-20T10:17:45;100885.78;;;20.92;61.78
48200;BME280;33990;44.602;10.976;2023-05-20T10:20:14;100881.41;;;20.91;61.78
48200;BME280;33990;44.602;10.976;2023-05-20T10:22:41;100878.56;;;20.92;61.53
48200;BME280;33990;44.602;10.976;2023-05-20T10:25:23;100885.78;;;20.92;61.67
48200;BME280;33990;44.602;10.976;2023-05-20T10:28:06;100877.72;;;20.92;61.76
48200;BME280;33990;44.602;10.976;2023-05-20T10:30:34;100889.34;;;20.92;61.54
48200;BME280;33990;44.602;10.976;2023-05-20T10:33:03;100887.63;;;20.91;61.66
48200;BME280;33990;44.602;10.976;2023-05-20T10:35:31;100895.56;;;20.93;61.68
48200;BME280;33990;44.602;10.976;2023-05-20T10:38:10;100893.03;;;20.91;61.59
48200;BME280;33990;44.602;10.976;2023-05-20T10:40:38;100884.94;;;20.91;61.80
48200;BME280;33990;44.602;10.976;2023-05-20T10:43:25;100889.47;;;20.91;61.56
48200;BME280;33990;44.602;10.976;2023-05-20T10:45:56;100887.63;;;20.91;61.46
48200;BME280;33990;44.602;10.976;2023-05-20T10:48:25;100883.09;;;20.92;61.56
48200;BME280;33990;44.602;10.976;2023-05-20T10:50:54;100882.09;;;20.93;61.58
48200;BME280;33990;44.602;10.976;2023-05-20T10:53:25;100877.72;;;20.92;61.53
48200;BME280;33990;44.602;10.976;2023-05-20T10:56:01;100870.50;;;20.92;61.62
48200;BME280;33990;44.602;10.976;2023-05-20T10:58:36;100869.66;;;20.92;61.46
48200;BME280;33990;44.602;10.976;2023-05-20T11:01:04;100868.66;;;20.93;61.47
48200;BME280;33990;44.602;10.976;2023-05-20T11:03:33;100864.97;;;20.94;61.46
48200;BME280;33990;44.602;10.976;2023-05-20T11:06:10;100864.84;;;20.95;61.46
48200;BME280;33990;44.602;10.976;2023-05-20T11:08:37;100869.94;;;20.98;61.59
48200;BME280;33990;44.602;10.976;2023-05-20T11:11:05;100869.94;;;20.98;61.59
48200;BME280;33990;44.602;10.976;2023-05-20T11:13:33;100869.78;;;21.00;61.65
48200;BME280;33990;44.602;10.976;2023-05-20T11:16:00;100868.94;;;20.99;61.64
48200;BME280;33990;44.602;10.976;2023-05-20T11:18:27;100859.88;;;21.01;61.78
48200;BME280;33990;44.602;10.976;2023-05-20T11:20:58;100861.72;;;21.00;61.75
48200;BME280;33990;44.602;10.976;2023-05-20T11:23:27;100870.47;;;21.02;61.81
48200;BME280;33990;44.602;10.976;2023-05-20T11:25:56;100874.06;;;21.03;61.76
48200;BME280;33990;44.602;10.976;2023-05-20T11:28:24;100871.34;;;21.03;61.72
48200;BME280;33990;44.602;10.976;2023-05-20T11:30:51;100874.91;;;21.03;61.76
48200;BME280;33990;44.602;10.976;2023-05-20T11:33:19;100870.47;;;21.02;61.82
48200;BME280;33990;44.602;10.976;2023-05-20T11:35:50;100863.28;;;21.03;61.72
48200;BME280;33990;44.602;10.976;2023-05-20T11:38:18;100865.66;;;21.06;61.90
48200;BME280;33990;44.602;10.976;2023-05-20T11:40:54;100870.22;;;21.05;61.94
48200;BME280;33990;44.602;10.976;2023-05-20T11:43:23;100861.13;;;21.06;61.93
48200;BME280;33990;44.602;10.976;2023-05-20T11:45:55;100864.81;;;21.05;61.93
48200;BME280;33990;44.602;10.976;2023-05-20T11:48:24;100852.22;;;21.06;61.84
48200;BME280;33990;44.602;10.976;2023-05-20T11:50:55;100858.44;;;21.06;61.94
48200;BME280;33990;44.602;10.976;2023-05-20T11:53:23;100862.13;;;21.05;61.84
48200;BME280;33990;44.602;10.976;2023-05-20T11:55:54;100857.59;;;21.06;61.90
48200;BME280;33990;44.602;10.976;2023-05-20T11:58:27;100861.13;;;21.06;61.89
48200;BME280;33990;44.602;10.976;2023-05-20T12:00:56;100858.44;;;21.06;61.98
48200;BME280;33990;44.602;10.976;2023-05-20T12:03:43;100845.84;;;21.07;61.99
48200;BME280;33990;44.602;10.976;2023-05-20T12:06:11;100855.75;;;21.06;62.10
48200;BME280;33990;44.602;10.976;2023-05-20T12:08:39;100860.28;;;21.06;62.15
48200;BME280;33990;44.602;10.976;2023-05-20T12:11:07;100864.53;;;21.08;62.36
48200;BME280;33990;44.602;10.976;2023-05-20T12:13:34;100853.78;;;21.08;62.71
48200;BME280;33990;44.602;10.976;2023-05-20T12:16:02;100853.78;;;21.08;62.68
48200;BME280;33990;44.602;10.976;2023-05-20T12:18:32;100858.16;;;21.09;63.05
48200;BME280;33990;44.602;10.976;2023-05-20T12:21:00;100858.16;;;21.09;63.11
48200;BME280;33990;44.602;10.976;2023-05-20T12:23:27;100858.16;;;21.09;63.05
48200;BME280;33990;44.602;10.976;2023-05-20T12:25:56;100863.53;;;21.09;62.94
48200;BME280;33990;44.602;10.976;2023-05-20T12:28:24;100870.63;;;21.10;63.23
48200;BME280;33990;44.602;10.976;2023-05-20T12:30:51;100862.69;;;21.09;63.25
48200;BME280;33990;44.602;10.976;2023-05-20T12:33:19;100870.63;;;21.10;63.23
48200;BME280;33990;44.602;10.976;2023-05-20T12:35:47;100864.41;;;21.10;63.29
48200;BME280;33990;44.602;10.976;2023-05-20T12:38:14;100859.84;;;21.10;63.23
48200;BME280;33990;44.602;10.976;2023-05-20T12:40:42;100856.19;;;21.11;63.33
48200;BME280;33990;44.602;10.976;2023-05-20T12:43:09;100850.81;;;21.11;63.42
48200;BME280;33990;44.602;10.976;2023-05-20T12:45:37;100847.13;;;21.12;63.32
48200;BME280;33990;44.602;10.976;2023-05-20T12:48:04;100852.50;;;21.12;63.47
48200;BME280;33990;44.602;10.976;2023-05-20T12:50:33;100856.88;;;21.13;63.51
48200;BME280;33990;44.602;10.976;2023-05-20T12:53:01;100851.50;;;21.13;63.56
48200;BME280;33990;44.602;10.976;2023-05-20T12:55:29;100845.13;;;21.14;63.74
48200;BME280;33990;44.602;10.976;2023-05-20T12:57:56;100851.38;;;21.15;63.74